createdAt,value
2018-06-03T00:00:58.571Z,85.74
2018-06-03T00:02:21.208Z,85.83
2018-06-03T00:03:43.741Z,85.69
2018-06-03T00:05:05.882Z,85.64
2018-06-03T00:06:06.808Z,85.64
2018-06-03T00:07:05.711Z,85.54
2018-06-03T00:08:06.502Z,85.54
2018-06-03T00:09:06.253Z,85.64
2018-06-03T00:10:48.799Z,85.74
2018-06-03T00:11:49.734Z,85.74
2018-06-03T00:12:49.584Z,85.74
2018-06-03T00:13:49.441Z,85.74
2018-06-03T00:14:49.286Z,85.83
2018-06-03T00:15:48.684Z,85.83
2018-06-03T00:16:49.215Z,85.83
2018-06-03T00:17:50.122Z,85.83
2018-06-03T00:18:49.822Z,85.83
2018-06-03T00:19:49.583Z,85.93
2018-06-03T00:20:49.693Z,85.93
2018-06-03T00:21:49.565Z,85.93
2018-06-03T00:22:50.116Z,86.02
2018-06-03T00:23:48.735Z,86.02
2018-06-03T00:24:49.475Z,85.93
2018-06-03T00:25:49.347Z,86.02
2018-06-03T00:26:48.998Z,86.21
2018-06-03T00:27:50.389Z,86.31
2018-06-03T00:28:49.052Z,86.31
2018-06-03T00:29:49.923Z,86.21
2018-06-03T00:30:49.449Z,86.21
2018-06-03T00:31:49.221Z,86.31
2018-06-03T00:32:50.252Z,86.31
2018-06-03T00:34:31.990Z,86.31
2018-06-03T00:35:32.827Z,86.31
2018-06-03T00:36:32.259Z,86.41
2018-06-03T00:37:32.092Z,86.41
2018-06-03T00:38:32.554Z,86.50
2018-06-03T00:39:32.451Z,86.60
2018-06-03T00:40:32.940Z,86.69
2018-06-03T00:41:32.896Z,86.69
2018-06-03T00:42:32.644Z,86.69
2018-06-03T00:43:33.124Z,86.79
2018-06-03T00:44:53.295Z,86.69
2018-06-03T00:45:53.680Z,86.79
2018-06-03T00:46:54.147Z,86.88
2018-06-03T00:47:53.905Z,86.88
2018-06-03T00:48:53.404Z,86.98
2018-06-03T00:49:53.949Z,86.98
2018-06-03T00:50:53.773Z,86.98
2018-06-03T00:51:53.556Z,87.08
2018-06-03T00:52:54.487Z,87.08
2018-06-03T00:53:53.951Z,87.08
2018-06-03T00:54:53.558Z,87.08
2018-06-03T00:55:54.437Z,87.12
2018-06-03T00:56:54.273Z,87.21
2018-06-03T00:57:53.904Z,87.31
2018-06-03T00:58:53.331Z,87.37
2018-06-03T00:59:54.196Z,87.46
2018-06-03T01:00:53.755Z,87.55
2018-06-03T01:01:54.501Z,87.55
2018-06-03T01:02:54.140Z,87.65
2018-06-03T01:03:53.792Z,87.74
2018-06-03T01:04:53.467Z,87.74
2018-06-03T01:05:54.056Z,87.84
2018-06-03T01:06:54.981Z,87.98
2018-06-03T01:07:53.552Z,88.03
2018-06-03T01:08:54.353Z,87.94
2018-06-03T01:09:54.293Z,87.94
2018-06-03T01:10:54.124Z,88.23
2018-06-03T01:11:54.069Z,88.32
2018-06-03T01:12:53.868Z,88.42
2018-06-03T01:13:53.427Z,88.42
2018-06-03T01:15:15.787Z,88.42
2018-06-03T01:16:36.399Z,88.42
2018-06-03T01:17:36.800Z,88.42
2018-06-03T01:18:36.770Z,88.32
2018-06-03T01:19:38.315Z,88.32
2018-06-03T01:20:37.196Z,88.23
2018-06-03T01:21:37.050Z,88.13
2018-06-03T01:22:36.404Z,88.03
2018-06-03T01:23:36.950Z,88.03
2018-06-03T01:24:36.620Z,88.03
2018-06-03T01:25:37.434Z,88.03
2018-06-03T01:26:37.153Z,87.94
2018-06-03T01:28:20.460Z,87.84
2018-06-03T01:29:21.385Z,87.74
2018-06-03T01:30:42.788Z,87.65
2018-06-03T01:31:43.756Z,87.74
2018-06-03T01:32:42.674Z,87.74
2018-06-03T01:33:43.318Z,87.61
2018-06-03T01:34:43.603Z,87.51
2018-06-03T01:35:43.505Z,87.41
2018-06-03T01:36:43.256Z,87.41
2018-06-03T01:37:43.180Z,87.23
2018-06-03T01:38:43.117Z,87.23
2018-06-03T01:40:04.760Z,87.13
2018-06-03T01:41:04.302Z,86.84
2018-06-03T01:42:04.838Z,86.65
2018-06-03T01:43:04.570Z,86.55
2018-06-03T01:44:05.338Z,86.55
2018-06-03T01:45:04.895Z,86.55
2018-06-03T01:46:04.435Z,86.55
2018-06-03T01:47:05.380Z,86.65
2018-06-03T01:48:05.278Z,86.65
2018-06-03T01:49:26.501Z,86.65
2018-06-03T01:50:27.910Z,86.65
2018-06-03T01:51:27.987Z,86.65
2018-06-03T01:52:26.647Z,86.65
2018-06-03T01:53:26.354Z,86.65
2018-06-03T01:54:26.831Z,86.65
2018-06-03T01:55:26.365Z,86.55
2018-06-03T01:56:26.916Z,86.55
2018-06-03T01:57:26.840Z,86.55
2018-06-03T01:58:26.768Z,86.65
2018-06-03T01:59:26.439Z,86.74
2018-06-03T02:00:27.157Z,86.65
2018-06-03T02:01:27.546Z,86.65
2018-06-03T02:02:27.583Z,86.36
2018-06-03T02:03:27.049Z,86.17
2018-06-03T02:04:26.561Z,86.08
2018-06-03T02:05:27.183Z,85.98
2018-06-03T02:06:27.221Z,86.08
2018-06-03T02:07:26.844Z,86.17
2018-06-03T02:08:26.479Z,86.27
2018-06-03T02:09:26.374Z,86.36
2018-06-03T02:10:27.430Z,86.36
2018-06-03T02:11:27.715Z,86.32
2018-06-03T02:12:27.143Z,86.32
2018-06-03T02:13:27.450Z,86.32
2018-06-03T02:14:49.138Z,86.41
2018-06-03T02:15:49.887Z,86.80
2018-06-03T02:16:49.488Z,86.99
2018-06-03T02:17:50.071Z,87.18
2018-06-03T02:18:49.864Z,87.27
2018-06-03T02:19:49.465Z,87.27
2018-06-03T02:20:50.128Z,87.37
2018-06-03T02:21:53.819Z,87.27
2018-06-03T02:22:49.695Z,87.18
2018-06-03T02:23:49.384Z,87.18
2018-06-03T02:24:50.124Z,87.18
2018-06-03T02:25:51.181Z,87.08
2018-06-03T02:26:50.254Z,87.08
2018-06-03T02:27:49.794Z,87.18
2018-06-03T02:28:50.262Z,87.08
2018-06-03T02:29:50.224Z,87.08
2018-06-03T02:30:50.637Z,87.08
2018-06-03T02:31:50.133Z,86.99
2018-06-03T02:32:50.842Z,86.90
2018-06-03T02:33:50.199Z,86.90
2018-06-03T02:34:50.743Z,86.80
2018-06-03T02:35:49.241Z,86.80
2018-06-03T02:36:50.483Z,86.70
2018-06-03T02:37:54.637Z,86.51
2018-06-03T02:38:49.088Z,86.32
2018-06-03T02:39:49.714Z,86.32
2018-06-03T02:40:49.234Z,86.41
2018-06-03T02:41:49.788Z,86.51
2018-06-03T02:42:49.463Z,86.57
2018-06-03T02:43:49.870Z,86.66
2018-06-03T02:44:49.704Z,86.57
2018-06-03T02:45:49.664Z,86.57
2018-06-03T02:46:49.208Z,86.47
2018-06-03T02:47:49.604Z,86.28
2018-06-03T02:48:49.314Z,86.28
2018-06-03T02:49:49.894Z,86.28
2018-06-03T02:50:49.792Z,86.18
2018-06-03T02:52:54.234Z,85.99
2018-06-03T02:53:54.888Z,85.89
2018-06-03T02:54:54.822Z,85.71
2018-06-03T02:55:54.747Z,85.71
2018-06-03T02:56:55.265Z,85.71
2018-06-03T02:57:54.974Z,85.75
2018-06-03T02:58:54.967Z,85.61
2018-06-03T02:59:54.723Z,85.46
2018-06-03T03:00:54.545Z,85.36
2018-06-03T03:01:54.162Z,85.17
2018-06-03T03:02:54.812Z,84.98
2018-06-03T03:03:55.021Z,84.79
2018-06-03T03:04:54.752Z,84.59
2018-06-03T03:05:54.776Z,84.50
2018-06-03T03:06:54.431Z,84.41
2018-06-03T03:07:53.993Z,84.31
2018-06-03T03:08:54.778Z,84.22
2018-06-03T03:09:54.693Z,84.12
2018-06-03T03:10:54.325Z,84.02
2018-06-03T03:11:55.031Z,84.02
2018-06-03T03:12:54.851Z,84.02
2018-06-03T03:13:54.781Z,83.93
2018-06-03T03:14:54.564Z,83.93
2018-06-03T03:15:54.143Z,83.93
2018-06-03T03:16:54.835Z,83.83
2018-06-03T03:17:54.707Z,83.83
2018-06-03T03:18:54.337Z,83.83
2018-06-03T03:19:54.175Z,83.83
2018-06-03T03:20:54.585Z,83.93
2018-06-03T03:21:54.160Z,83.93
2018-06-03T03:23:16.568Z,84.02
2018-06-03T03:25:21.766Z,84.12
2018-06-03T03:26:22.535Z,84.22
2018-06-03T03:27:22.229Z,84.41
2018-06-03T03:28:22.213Z,84.45
2018-06-03T03:29:21.843Z,84.64
2018-06-03T03:30:22.725Z,84.83
2018-06-03T03:31:22.680Z,85.02
2018-06-03T03:32:22.405Z,85.08
2018-06-03T03:33:22.147Z,84.98
2018-06-03T03:34:23.120Z,85.02
2018-06-03T03:35:22.141Z,85.02
2018-06-03T03:36:21.876Z,85.02
2018-06-03T03:37:22.508Z,85.12
2018-06-03T03:38:22.326Z,85.31
2018-06-03T03:39:21.895Z,85.41
2018-06-03T03:40:22.888Z,85.50
2018-06-03T03:41:22.633Z,85.69
2018-06-03T03:42:22.426Z,85.79
2018-06-03T03:43:21.997Z,85.88
2018-06-03T03:44:22.539Z,85.88
2018-06-03T03:45:22.044Z,85.88
2018-06-03T03:46:22.643Z,85.98
2018-06-03T03:47:22.381Z,85.98
2018-06-03T03:48:22.378Z,86.08
2018-06-03T03:49:22.414Z,86.17
2018-06-03T03:50:22.988Z,86.17
2018-06-03T03:51:22.958Z,86.17
2018-06-03T03:52:22.525Z,86.27
2018-06-03T03:53:22.542Z,86.27
2018-06-03T03:54:22.259Z,86.27
2018-06-03T03:55:22.052Z,86.17
2018-06-03T03:56:22.528Z,86.17
2018-06-03T03:57:22.600Z,86.08
2018-06-03T03:58:22.365Z,85.98
2018-06-03T03:59:21.967Z,85.88
2018-06-03T04:00:22.872Z,85.88
2018-06-03T04:01:22.782Z,85.88
2018-06-03T04:03:50.077Z,85.98
2018-06-03T04:05:11.345Z,85.88
2018-06-03T04:06:11.388Z,85.88
2018-06-03T04:07:11.941Z,85.79
2018-06-03T04:08:11.785Z,85.83
2018-06-03T04:09:11.623Z,85.83
2018-06-03T04:10:32.945Z,85.74
2018-06-03T04:11:33.640Z,85.74
2018-06-03T04:12:33.545Z,85.74
2018-06-03T04:13:54.676Z,85.83
2018-06-03T04:14:54.596Z,85.93
2018-06-03T04:15:55.734Z,86.02
2018-06-03T04:16:55.788Z,86.31
2018-06-03T04:17:55.350Z,86.41
2018-06-03T04:18:54.894Z,86.41
2018-06-03T04:19:54.511Z,86.41
2018-06-03T04:21:16.506Z,86.41
2018-06-03T04:22:39.274Z,86.50
2018-06-03T04:23:40.089Z,86.50
2018-06-03T04:24:39.938Z,86.60
2018-06-03T04:25:39.878Z,86.69
2018-06-03T04:26:39.592Z,86.79
2018-06-03T04:27:39.476Z,86.79
2018-06-03T04:28:39.084Z,86.88
2018-06-03T04:30:23.191Z,86.98
2018-06-03T04:31:44.426Z,87.17
2018-06-03T04:32:44.975Z,87.27
2018-06-03T04:33:44.733Z,87.27
2018-06-03T04:34:44.361Z,87.41
2018-06-03T04:35:45.060Z,87.60
2018-06-03T04:36:45.086Z,87.70
2018-06-03T04:37:44.936Z,87.88
2018-06-03T04:38:44.640Z,87.98
2018-06-03T04:39:45.313Z,88.08
2018-06-03T04:40:44.946Z,88.37
2018-06-03T04:41:44.652Z,88.46
2018-06-03T04:42:46.169Z,88.84
2018-06-03T04:43:45.832Z,88.94
2018-06-03T04:44:45.016Z,89.04
2018-06-03T04:45:44.719Z,89.23
2018-06-03T04:46:45.613Z,89.42
2018-06-03T04:47:45.410Z,89.42
2018-06-03T04:48:45.232Z,89.61
2018-06-03T04:49:44.949Z,89.80
2018-06-03T04:50:44.783Z,90.09
2018-06-03T04:51:44.612Z,90.09
2018-06-03T04:52:45.256Z,90.47
2018-06-03T04:53:45.090Z,90.57
2018-06-03T04:54:44.912Z,90.61
2018-06-03T04:55:44.918Z,90.38
2018-06-03T04:57:06.807Z,90.47
2018-06-03T04:58:06.779Z,90.71
2018-06-03T04:59:07.449Z,90.81
2018-06-03T05:00:07.649Z,90.81
2018-06-03T05:01:06.849Z,90.90
2018-06-03T05:02:28.181Z,91.19
2018-06-03T05:03:29.208Z,91.19
2018-06-03T05:04:29.965Z,91.28
2018-06-03T05:05:28.996Z,91.38
2018-06-03T05:06:28.805Z,91.57
2018-06-03T05:07:28.818Z,91.77
2018-06-03T05:08:29.657Z,91.86
2018-06-03T05:09:28.670Z,91.67
2018-06-03T05:10:28.773Z,91.28
2018-06-03T05:11:28.745Z,91.48
2018-06-03T05:12:28.724Z,91.38
2018-06-03T05:13:28.667Z,91.57
2018-06-03T05:14:28.463Z,91.77
2018-06-03T05:15:28.636Z,91.57
2018-06-03T05:16:29.155Z,91.57
2018-06-03T05:17:28.852Z,91.57
2018-06-03T05:18:50.434Z,91.57
2018-06-03T05:19:50.393Z,91.67
2018-06-03T05:20:50.412Z,91.77
2018-06-03T05:22:11.735Z,92.05
2018-06-03T05:23:12.539Z,92.05
2018-06-03T05:24:12.555Z,91.77
2018-06-03T05:25:12.569Z,91.57
2018-06-03T05:26:12.376Z,91.57
2018-06-03T05:27:12.471Z,91.91
2018-06-03T05:28:33.711Z,92.00
2018-06-03T05:29:34.841Z,92.10
2018-06-03T05:30:34.119Z,92.10
2018-06-03T05:31:33.854Z,92.10
2018-06-03T05:32:35.042Z,92.10
2018-06-03T05:33:34.091Z,92.19
2018-06-03T05:34:56.007Z,92.10
2018-06-03T05:35:56.759Z,92.10
2018-06-03T05:36:56.598Z,92.58
2018-06-03T05:38:06.935Z,92.86
2018-06-03T05:38:55.797Z,92.77
2018-06-03T05:39:56.648Z,92.86
2018-06-03T05:40:56.753Z,93.15
2018-06-03T05:42:18.619Z,93.06
2018-06-03T05:43:19.546Z,93.15
2018-06-03T05:44:19.582Z,94.79
2018-06-03T05:45:19.336Z,94.88
2018-06-03T05:46:19.321Z,95.46
2018-06-03T05:47:19.667Z,95.26
2018-06-03T05:48:18.887Z,95.26
2018-06-03T05:49:18.744Z,95.36
2018-06-03T05:50:19.004Z,95.26
2018-06-03T05:51:19.523Z,94.88
2018-06-03T05:52:19.521Z,94.98
2018-06-03T05:53:19.420Z,94.98
2018-06-03T05:54:19.242Z,95.55
2018-06-03T05:55:18.928Z,95.46
2018-06-03T05:56:18.839Z,95.79
2018-06-03T05:57:18.725Z,95.89
2018-06-03T05:58:19.388Z,96.27
2018-06-03T05:59:19.289Z,96.27
2018-06-03T06:00:19.005Z,96.85
2018-06-03T06:01:19.022Z,96.85
2018-06-03T06:02:49.532Z,97.04
2018-06-03T06:03:49.429Z,97.04
2018-06-03T06:04:49.040Z,96.75
2018-06-03T06:05:49.867Z,96.94
2018-06-03T06:06:50.149Z,97.91
2018-06-03T06:07:50.329Z,98.29
2018-06-03T06:08:49.552Z,97.52
2018-06-03T06:10:11.391Z,97.91
2018-06-03T06:11:11.264Z,98.67
2018-06-03T06:12:12.499Z,98.38
2018-06-03T06:13:33.018Z,98.19
2018-06-03T06:14:55.707Z,98.10
2018-06-03T06:15:56.856Z,97.91
2018-06-03T06:16:56.710Z,98.00
2018-06-03T06:17:57.639Z,98.19
2018-06-03T06:18:56.716Z,98.96
2018-06-03T06:19:56.345Z,98.58
2018-06-03T06:20:56.240Z,98.34
2018-06-03T06:21:56.514Z,98.14
2018-06-03T06:22:56.385Z,98.05
2018-06-03T06:24:18.018Z,98.14
2018-06-03T06:25:19.203Z,98.43
2018-06-03T06:26:18.441Z,98.53
2018-06-03T06:27:18.174Z,99.58
2018-06-03T06:28:18.443Z,99.10
2018-06-03T06:29:18.442Z,99.99
2018-06-03T06:30:18.423Z,99.49
2018-06-03T06:31:18.155Z,99.49
2018-06-03T06:32:19.233Z,99.68
2018-06-03T06:33:18.290Z,99.68
2018-06-03T06:34:18.121Z,99.78
2018-06-03T06:35:19.153Z,99.40
2018-06-03T06:36:18.248Z,99.97
2018-06-03T06:37:19.904Z,99.78
2018-06-03T06:38:19.293Z,99.68
2018-06-03T06:39:18.555Z,99.58
2018-06-03T06:40:18.591Z,99.40
2018-06-03T06:41:18.887Z,99.44
2018-06-03T06:42:18.977Z,99.54
2018-06-03T06:43:40.518Z,99.99
2018-06-03T06:44:41.726Z,99.92
2018-06-03T06:45:40.679Z,99.99
2018-06-03T06:46:40.783Z,99.99
2018-06-03T06:47:40.723Z,99.99
2018-06-03T06:48:40.846Z,99.99
2018-06-03T06:49:40.559Z,99.99
2018-06-03T06:50:41.789Z,99.99
2018-06-03T06:52:26.214Z,99.99
2018-06-03T06:53:27.228Z,99.99
2018-06-03T06:54:26.890Z,99.99
2018-06-03T06:55:26.920Z,99.99
2018-06-03T06:56:26.678Z,99.99
2018-06-03T06:57:26.732Z,99.99
2018-06-03T06:58:27.565Z,99.99
2018-06-03T06:59:26.475Z,99.99
2018-06-03T07:00:26.253Z,99.99
2018-06-03T07:02:10.100Z,99.99
2018-06-03T07:03:10.274Z,99.99
2018-06-03T07:04:31.771Z,99.99
2018-06-03T07:05:32.693Z,99.99
2018-06-03T07:06:31.753Z,99.99
2018-06-03T07:07:33.317Z,99.99
2018-06-03T07:08:32.122Z,99.99
2018-06-03T07:09:31.791Z,99.99
2018-06-03T07:10:31.756Z,99.99
2018-06-03T07:11:32.714Z,99.99
2018-06-03T07:12:32.436Z,99.99
2018-06-03T07:13:54.111Z,99.99
2018-06-03T07:14:54.771Z,99.99
2018-06-03T07:15:55.515Z,99.99
2018-06-03T07:16:54.405Z,99.99
2018-06-03T07:17:54.271Z,99.99
2018-06-03T07:18:54.218Z,99.99
2018-06-03T07:19:54.978Z,99.99
2018-06-03T07:20:54.610Z,99.99
2018-06-03T07:21:54.627Z,99.99
2018-06-03T07:22:54.257Z,99.99
2018-06-03T07:23:54.088Z,99.99
2018-06-03T07:25:15.667Z,99.99
2018-06-03T07:26:16.721Z,99.99
2018-06-03T07:27:38.677Z,99.99
2018-06-03T07:28:39.379Z,99.99
2018-06-03T07:29:40.250Z,99.99
2018-06-03T07:30:39.343Z,99.99
2018-06-03T07:31:38.954Z,99.99
2018-06-03T07:32:39.949Z,99.99
2018-06-03T07:34:01.150Z,99.99
2018-06-03T07:35:02.231Z,99.99
2018-06-03T07:36:02.150Z,99.99
2018-06-03T07:37:23.548Z,99.99
2018-06-03T07:38:23.733Z,99.99
2018-06-03T07:39:24.243Z,99.99
2018-06-03T07:40:25.133Z,99.99
2018-06-03T07:41:24.133Z,99.99
2018-06-03T07:42:24.001Z,99.99
2018-06-03T07:43:45.462Z,99.99
2018-06-03T07:44:45.300Z,99.99
2018-06-03T07:45:46.207Z,99.99
2018-06-03T07:46:46.117Z,99.99
2018-06-03T07:47:45.987Z,99.99
2018-06-03T07:48:46.180Z,99.99
2018-06-03T07:49:46.055Z,99.99
2018-06-03T07:50:46.115Z,99.99
2018-06-03T07:51:46.327Z,99.99
2018-06-03T07:52:46.049Z,99.99
2018-06-03T07:53:45.957Z,99.74
2018-06-03T07:54:46.098Z,99.99
2018-06-03T07:55:45.874Z,99.99
2018-06-03T07:56:45.708Z,99.69
2018-06-03T07:57:45.850Z,99.21
2018-06-03T07:58:45.851Z,99.40
2018-06-03T07:59:45.657Z,99.11
2018-06-03T08:00:46.651Z,98.83
2018-06-03T08:01:45.643Z,98.97
2018-06-03T08:02:45.832Z,99.16
2018-06-03T08:03:46.399Z,99.36
2018-06-03T08:05:08.049Z,98.78
2018-06-03T08:06:30.545Z,97.67
2018-06-03T08:07:30.773Z,98.73
2018-06-03T08:08:30.898Z,98.73
2018-06-03T08:09:29.789Z,98.73
2018-06-03T08:10:31.011Z,98.49
2018-06-03T08:11:32.250Z,98.58
2018-06-03T08:12:30.649Z,98.87
2018-06-03T08:13:31.568Z,98.58
2018-06-03T08:14:30.826Z,98.49
2018-06-03T08:15:31.934Z,98.39
2018-06-03T08:16:31.182Z,98.44
2018-06-03T08:17:31.357Z,98.63
2018-06-03T08:18:30.192Z,98.73
2018-06-03T08:19:30.086Z,98.54
2018-06-03T08:20:30.971Z,98.44
2018-06-03T08:21:29.941Z,98.63
2018-06-03T08:22:29.917Z,99.02
2018-06-03T08:24:13.686Z,98.73
2018-06-03T08:25:36.578Z,98.82
2018-06-03T08:26:36.627Z,98.63
2018-06-03T08:27:58.066Z,98.73
2018-06-03T08:29:00.078Z,98.44
2018-06-03T08:29:58.971Z,98.92
2018-06-03T08:31:00.424Z,98.34
2018-06-03T08:32:20.927Z,98.63
2018-06-03T08:33:21.846Z,98.54
2018-06-03T08:34:22.631Z,98.44
2018-06-03T08:36:07.334Z,98.63
2018-06-03T08:37:06.750Z,98.25
2018-06-03T08:38:06.860Z,98.25
2018-06-03T08:39:28.752Z,98.63
2018-06-03T08:40:28.730Z,98.15
2018-06-03T08:41:28.898Z,98.54
2018-06-03T08:42:51.298Z,97.96
2018-06-03T08:43:51.580Z,98.25
2018-06-03T08:44:52.003Z,98.34
2018-06-03T08:45:50.734Z,98.05
2018-06-03T08:46:50.550Z,97.47
2018-06-03T08:47:50.331Z,98.44
2018-06-03T08:49:12.656Z,97.86
2018-06-03T08:50:13.649Z,97.86
2018-06-03T08:51:13.372Z,98.05
2018-06-03T08:52:23.906Z,98.20
2018-06-03T08:53:13.980Z,97.81
2018-06-03T08:54:13.524Z,98.29
2018-06-03T08:55:52.785Z,98.00
2018-06-03T08:56:46.310Z,97.91
2018-06-03T08:57:45.884Z,98.49
2018-06-03T08:58:50.883Z,98.10
2018-06-03T08:59:46.273Z,97.72
2018-06-03T09:00:47.320Z,98.10
2018-06-03T09:01:45.702Z,98.00
2018-06-03T09:02:45.708Z,98.10
2018-06-03T09:03:45.361Z,98.10
2018-06-03T09:04:46.392Z,98.00
2018-06-03T09:06:08.431Z,97.91
2018-06-03T09:07:52.976Z,97.72
2018-06-03T09:08:53.729Z,96.99
2018-06-03T09:09:53.829Z,97.38
2018-06-03T09:10:52.858Z,97.57
2018-06-03T09:11:52.790Z,97.57
2018-06-03T09:12:52.781Z,97.09
2018-06-03T09:13:52.873Z,97.47
2018-06-03T09:14:53.168Z,97.62
2018-06-03T09:16:16.499Z,97.72
2018-06-03T09:17:15.527Z,97.62
2018-06-03T09:18:15.723Z,97.14
2018-06-03T09:19:38.430Z,97.14
2018-06-03T09:20:37.805Z,96.75
2018-06-03T09:21:39.179Z,96.84
2018-06-03T09:22:59.253Z,96.84
2018-06-03T09:24:00.710Z,97.24
2018-06-03T09:25:00.555Z,97.38
2018-06-03T09:26:00.030Z,97.09
2018-06-03T09:26:59.880Z,97.38
2018-06-03T09:28:00.023Z,96.56
2018-06-03T09:29:00.125Z,96.41
2018-06-03T09:30:00.298Z,97.33
2018-06-03T09:30:59.048Z,96.94
2018-06-03T09:32:00.187Z,96.89
2018-06-03T09:32:59.251Z,96.46
2018-06-03T09:33:59.136Z,96.70
2018-06-03T09:35:23.952Z,96.99
2018-06-03T09:36:22.181Z,96.41
2018-06-03T09:37:23.676Z,96.61
2018-06-03T09:38:22.944Z,97.09
2018-06-03T09:39:57.054Z,95.93
2018-06-03T09:40:57.068Z,95.16
2018-06-03T09:41:57.908Z,95.06
2018-06-03T09:42:57.671Z,95.30
2018-06-03T09:43:58.391Z,95.01
2018-06-03T09:44:57.567Z,93.66
2018-06-03T09:45:57.609Z,94.04
2018-06-03T09:46:57.940Z,93.85
2018-06-03T09:47:57.239Z,93.32
2018-06-03T09:49:18.984Z,93.23
2018-06-03T09:50:41.724Z,92.21
2018-06-03T09:52:04.598Z,91.72
2018-06-03T09:53:04.738Z,91.91
2018-06-03T09:54:08.783Z,89.73
2018-06-03T09:55:04.824Z,88.37
2018-06-03T09:56:28.592Z,89.29
2018-06-03T09:57:28.709Z,88.75
2018-06-03T09:58:28.619Z,86.57
2018-06-03T09:59:30.008Z,86.22
2018-06-03T10:00:28.960Z,84.28
2018-06-03T10:01:29.233Z,85.06
2018-06-03T10:02:29.595Z,83.60
2018-06-03T10:03:28.844Z,84.86
2018-06-03T10:04:28.788Z,83.89
2018-06-03T10:05:28.980Z,82.92
2018-06-03T10:06:29.029Z,82.63
2018-06-03T10:07:29.165Z,83.02
2018-06-03T10:08:29.558Z,82.92
2018-06-03T10:09:29.245Z,83.03
2018-06-03T10:10:30.015Z,84.39
2018-06-03T10:11:30.094Z,86.13
2018-06-03T10:12:29.136Z,85.94
2018-06-03T10:13:30.616Z,84.88
2018-06-03T10:14:29.521Z,83.52
2018-06-03T10:15:29.314Z,83.72
2018-06-03T10:16:29.206Z,83.72
2018-06-03T10:17:29.183Z,83.13
2018-06-03T10:18:28.907Z,83.72
2018-06-03T10:19:28.998Z,83.52
2018-06-03T10:20:40.459Z,84.68
2018-06-03T10:21:37.076Z,84.72
2018-06-03T10:22:30.351Z,84.72
2018-06-03T10:23:57.120Z,83.72
2018-06-03T10:25:01.910Z,83.81
2018-06-03T10:25:57.523Z,83.72
2018-06-03T10:26:56.631Z,84.72
2018-06-03T10:27:58.085Z,83.17
2018-06-03T10:29:06.272Z,81.62
2018-06-03T10:29:59.337Z,81.76
2018-06-03T10:30:58.948Z,82.82
2018-06-03T10:31:57.109Z,81.85
2018-06-03T10:32:57.404Z,81.33
2018-06-03T10:34:26.248Z,81.76
2018-06-03T10:35:19.335Z,82.44
2018-06-03T10:37:07.363Z,81.41
2018-06-03T10:38:11.069Z,81.70
2018-06-03T10:39:14.200Z,81.12
2018-06-03T10:40:11.659Z,80.93
2018-06-03T10:41:04.104Z,81.21
2018-06-03T10:42:40.433Z,82.34
2018-06-03T10:44:06.529Z,80.88
2018-06-03T10:45:13.573Z,81.62
2018-06-03T10:46:14.800Z,81.82
2018-06-03T10:47:15.768Z,82.20
2018-06-03T10:48:07.562Z,84.63
2018-06-03T10:49:34.703Z,83.70
2018-06-03T10:50:33.049Z,82.69
2018-06-03T10:51:33.454Z,83.37
2018-06-03T10:52:32.513Z,84.43
2018-06-03T10:53:54.064Z,82.01
2018-06-03T10:54:56.454Z,82.75
2018-06-03T10:56:20.090Z,83.03
2018-06-03T10:57:19.102Z,84.74
2018-06-03T10:58:19.312Z,85.03
2018-06-03T10:59:19.062Z,84.35
2018-06-03T11:00:29.133Z,86.00
2018-06-03T11:01:21.339Z,85.13
2018-06-03T11:02:20.018Z,85.61
2018-06-03T11:03:21.180Z,85.61
2018-06-03T11:04:20.912Z,85.31
2018-06-03T11:05:19.321Z,84.74
2018-06-03T11:06:21.535Z,84.64
2018-06-03T11:07:20.015Z,84.74
2018-06-03T11:08:21.693Z,85.31
2018-06-03T11:09:19.135Z,83.96
2018-06-03T11:10:19.452Z,84.78
2018-06-03T11:11:19.762Z,83.33
2018-06-03T11:12:18.858Z,84.63
2018-06-03T11:13:21.018Z,83.17
2018-06-03T11:14:20.839Z,81.76
2018-06-03T11:15:19.048Z,80.44
2018-06-03T11:16:22.284Z,80.19
2018-06-03T11:17:24.403Z,79.80
2018-06-03T11:18:19.130Z,79.32
2018-06-03T11:19:19.343Z,79.06
2018-06-03T11:20:19.516Z,80.42
2018-06-03T11:21:40.116Z,77.45
2018-06-03T11:22:40.008Z,75.51
2018-06-03T11:23:41.715Z,75.02
2018-06-03T11:24:41.936Z,76.87
2018-06-03T11:25:40.612Z,74.18
2018-06-03T11:26:41.007Z,75.93
2018-06-03T11:27:41.068Z,74.12
2018-06-03T11:28:40.339Z,75.05
2018-06-03T11:29:40.768Z,75.15
2018-06-03T11:30:41.105Z,74.67
2018-06-03T11:31:40.087Z,75.64
2018-06-03T11:32:41.425Z,76.42
2018-06-03T11:33:40.358Z,74.15
2018-06-03T11:34:40.607Z,74.92
2018-06-03T11:35:40.792Z,74.79
2018-06-03T11:36:40.495Z,74.95
2018-06-03T11:37:40.387Z,76.21
2018-06-03T11:38:40.941Z,76.79
2018-06-03T11:39:40.161Z,76.46
2018-06-03T11:40:40.009Z,76.07
2018-06-03T11:41:40.324Z,77.43
2018-06-03T11:42:40.283Z,78.50
2018-06-03T11:44:01.784Z,80.30
2018-06-03T11:45:03.894Z,80.40
2018-06-03T11:46:02.784Z,81.23
2018-06-03T11:47:03.052Z,82.01
2018-06-03T11:48:45.074Z,81.33
2018-06-03T11:49:45.983Z,81.52
2018-06-03T11:50:46.007Z,81.13
2018-06-03T11:51:45.905Z,81.43
2018-06-03T11:52:46.375Z,82.30
2018-06-03T11:53:45.931Z,83.37
2018-06-03T11:54:47.004Z,82.30
2018-06-03T11:55:46.915Z,82.50
2018-06-03T11:57:07.652Z,82.78
2018-06-03T11:58:10.053Z,81.72
2018-06-03T11:59:09.163Z,82.50
2018-06-03T12:00:09.449Z,83.17
2018-06-03T12:01:08.875Z,82.10
2018-06-03T12:02:08.843Z,82.50
2018-06-03T12:03:10.384Z,81.43
2018-06-03T12:04:33.837Z,82.10
2018-06-03T12:05:33.493Z,82.78
2018-06-03T12:06:33.487Z,83.95
2018-06-03T12:07:56.738Z,82.94
2018-06-03T12:08:58.459Z,82.55
2018-06-03T12:09:57.391Z,81.77
2018-06-03T12:10:59.266Z,81.48
2018-06-03T12:11:57.280Z,81.87
2018-06-03T12:12:57.818Z,82.17
2018-06-03T12:13:57.533Z,82.65
2018-06-03T12:14:56.745Z,83.42
2018-06-03T12:15:56.679Z,83.52
2018-06-03T12:16:58.365Z,83.81
2018-06-03T12:18:20.104Z,83.42
2018-06-03T12:19:20.291Z,84.24
2018-06-03T12:20:20.228Z,83.27
2018-06-03T12:21:21.094Z,82.84
2018-06-03T12:22:20.794Z,83.75
2018-06-03T12:23:20.897Z,83.07
2018-06-03T12:24:21.503Z,82.88
2018-06-03T12:25:22.042Z,81.43
2018-06-03T12:27:10.623Z,82.69
2018-06-03T12:28:34.072Z,82.59
2018-06-03T12:29:57.396Z,82.40
2018-06-03T12:30:56.636Z,82.30
2018-06-03T12:31:56.948Z,82.53
2018-06-03T12:32:56.768Z,82.34
2018-06-03T12:34:20.814Z,81.18
2018-06-03T12:35:21.166Z,81.31
2018-06-03T12:36:21.185Z,81.21
2018-06-03T12:37:21.289Z,79.66
2018-06-03T12:38:22.931Z,79.66
2018-06-03T12:39:21.979Z,78.79
2018-06-03T12:40:21.899Z,80.15
2018-06-03T12:41:22.349Z,79.33
2018-06-03T12:42:47.255Z,80.50
2018-06-03T12:43:46.863Z,79.43
2018-06-03T12:44:45.869Z,79.82
2018-06-03T12:45:46.300Z,81.76
2018-06-03T12:46:45.642Z,82.53
2018-06-03T12:48:08.965Z,80.30
2018-06-03T12:49:09.173Z,80.79
2018-06-03T12:50:09.005Z,81.27
2018-06-03T12:51:10.121Z,81.66
2018-06-03T12:52:10.518Z,79.63
2018-06-03T12:53:09.493Z,79.63
2018-06-03T12:54:10.392Z,78.94
2018-06-03T12:55:09.910Z,77.88
2018-06-03T12:56:09.597Z,79.43
2018-06-03T12:57:10.378Z,79.78
2018-06-03T12:58:36.841Z,79.58
2018-06-03T12:59:38.343Z,80.75
2018-06-03T13:00:36.699Z,80.94
2018-06-03T13:01:37.380Z,80.79
2018-06-03T13:02:37.378Z,80.85
2018-06-03T13:03:36.598Z,80.85
2018-06-03T13:04:37.332Z,81.52
2018-06-03T13:05:36.623Z,81.52
2018-06-03T13:06:36.863Z,81.23
2018-06-03T13:07:37.360Z,80.69
2018-06-03T13:08:36.107Z,80.79
2018-06-03T13:09:38.398Z,78.94
2018-06-03T13:10:37.136Z,78.99
2018-06-03T13:11:36.991Z,78.69
2018-06-03T13:12:37.251Z,79.08
2018-06-03T13:13:36.554Z,77.53
2018-06-03T13:14:36.280Z,77.92
2018-06-03T13:15:37.529Z,78.99
2018-06-03T13:16:57.981Z,77.62
2018-06-03T13:17:59.012Z,77.14
2018-06-03T13:18:58.497Z,77.08
2018-06-03T13:20:00.760Z,77.08
2018-06-03T13:20:58.785Z,77.57
2018-06-03T13:22:02.129Z,77.67
2018-06-03T13:22:58.587Z,76.40
2018-06-03T13:24:08.636Z,76.69
2018-06-03T13:25:06.723Z,76.69
2018-06-03T13:26:00.944Z,76.40
2018-06-03T13:27:00.540Z,76.21
2018-06-03T13:28:03.074Z,76.31
2018-06-03T13:29:01.460Z,76.98
2018-06-03T13:30:23.827Z,77.57
2018-06-03T13:31:23.086Z,77.22
2018-06-03T13:32:29.023Z,75.43
2018-06-03T13:33:24.348Z,76.34
2018-06-03T13:34:23.694Z,76.83
2018-06-03T13:35:24.756Z,76.44